Time;durP1;ratioP1;P1;durP2;ratioP2;P2;SDS_P1;SDS_P2;PMS_P1;PMS_P2;Temp;Humidity;BMP_temperature;BMP_pressure;BME280_temperature;BME280_humidity;BME280_pressure;Samples;Min_cycle;Max_cycle;Signal;HPM_P1;HPM_P2
2021/05/27 00:02:52;;;;;;;4.55;2.45;;;22.30;41.80;;;;;;6172689;28;80969;-62
2021/05/27 00:05:53;;;;;;;3.40;2.15;;;22.30;41.80;;;;;;6170180;28;80912;-62
2021/05/27 00:08:53;;;;;;;4.18;2.53;;;22.30;42.10;;;;;;6171944;28;81546;-62
2021/05/27 00:11:54;;;;;;;7.30;2.85;;;22.30;41.80;;;;;;6168095;28;81738;-62
2021/05/27 00:14:54;;;;;;;4.25;2.05;;;22.20;41.60;;;;;;6170202;28;81487;-62
2021/05/27 00:17:55;;;;;;;3.33;2.10;;;22.30;41.60;;;;;;6169085;28;81885;-62
2021/05/27 00:20:55;;;;;;;3.70;2.20;;;22.30;41.70;;;;;;6171349;28;83075;-62
2021/05/27 00:23:57;;;;;;;5.15;2.20;;;22.30;41.70;;;;;;6182506;28;80436;-63
2021/05/27 00:26:57;;;;;;;3.60;2.22;;;22.30;41.60;;;;;;6182842;28;80397;-63
2021/05/27 00:29:58;;;;;;;6.07;2.30;;;22.20;41.60;;;;;;6168275;28;81091;-63
2021/05/27 00:32:58;;;;;;;3.33;1.90;;;22.30;41.40;;;;;;6156717;28;80614;-63
2021/05/27 00:35:59;;;;;;;4.05;2.45;;;22.30;41.40;;;;;;6173392;28;80597;-62
2021/05/27 00:38:59;;;;;;;3.10;2.20;;;22.20;41.20;;;;;;6168278;28;80507;-63
2021/05/27 00:42:00;;;;;;;6.30;2.58;;;22.30;41.70;;;;;;6173406;28;81702;-62
2021/05/27 00:45:00;;;;;;;3.00;2.10;;;22.20;41.50;;;;;;6161805;28;80561;-63
2021/05/27 00:48:01;;;;;;;3.45;1.98;;;22.30;41.20;;;;;;6172545;28;81996;-63
2021/05/27 00:51:02;;;;;;;3.45;2.10;;;22.30;41.20;;;;;;6178993;28;83328;-63
2021/05/27 00:54:03;;;;;;;2.75;2.30;;;22.30;41.30;;;;;;6196730;28;83130;-63
2021/05/27 00:57:03;;;;;;;2.45;2.08;;;22.20;41.70;;;;;;6196248;28;82027;-63
2021/05/27 01:00:04;;;;;;;3.70;1.88;;;22.20;41.00;;;;;;6197363;28;83163;-63
2021/05/27 01:03:05;;;;;;;3.90;2.00;;;22.20;41.00;;;;;;6198231;28;82158;-62
2021/05/27 01:06:06;;;;;;;3.53;1.80;;;22.20;40.90;;;;;;6182599;28;82342;-63
2021/05/27 01:09:06;;;;;;;2.67;2.00;;;22.20;40.90;;;;;;6169607;28;80767;-63
2021/05/27 01:12:07;;;;;;;3.38;2.00;;;22.20;40.60;;;;;;6157212;28;81436;-63
2021/05/27 01:18:28;;;;;;;2.63;1.90;;;22.20;41.00;;;;;;6179639;28;82524;-64
2021/05/27 01:21:29;;;;;;;3.65;2.20;;;22.20;40.80;;;;;;6162619;28;80851;-63
2021/05/27 01:24:29;;;;;;;2.38;1.52;;;22.20;41.20;;;;;;6157234;28;83156;-64
2021/05/27 01:27:30;;;;;;;3.13;1.85;;;22.20;40.90;;;;;;6158072;28;80440;-63
2021/05/27 01:30:30;;;;;;;3.47;1.80;;;22.20;41.00;;;;;;6176638;28;80695;-63
2021/05/27 01:33:31;;;;;;;2.38;1.75;;;22.20;41.00;;;;;;6177507;28;83463;-64
2021/05/27 01:36:31;;;;;;;3.08;1.63;;;22.20;40.90;;;;;;6175055;28;82902;-63
2021/05/27 01:39:32;;;;;;;1.60;1.42;;;22.20;40.70;;;;;;6160849;28;80450;-63
2021/05/27 01:42:33;;;;;;;3.47;1.92;;;22.20;40.50;;;;;;6173138;28;80449;-63
2021/05/27 01:45:33;;;;;;;2.53;2.00;;;22.20;40.40;;;;;;6195637;28;83161;-63
2021/05/27 01:48:35;;;;;;;2.25;1.63;;;22.20;40.40;;;;;;6197158;28;82853;-63
2021/05/27 01:51:36;;;;;;;3.42;2.00;;;22.20;40.80;;;;;;6161357;28;81108;-64
2021/05/27 01:54:37;;;;;;;2.63;1.50;;;22.20;40.50;;;;;;6157530;28;81531;-63
2021/05/27 01:57:38;;;;;;;2.33;1.65;;;22.20;40.60;;;;;;6192301;28;83570;-63
2021/05/27 02:00:39;;;;;;;2.97;1.60;;;22.20;40.20;;;;;;6159817;28;81975;-64
2021/05/27 02:03:39;;;;;;;2.30;1.75;;;22.20;40.40;;;;;;6191956;28;83269;-63
2021/05/27 02:06:49;;;;;;;4.65;1.88;;;22.20;40.60;;;;;;6196967;28;83085;-63
2021/05/27 02:09:52;;;;;;;1.88;1.45;;;22.20;40.70;;;;;;6186235;28;82628;-63
2021/05/27 02:12:53;;;;;;;2.55;1.67;;;22.10;40.40;;;;;;6158596;28;80345;-63
2021/05/27 02:15:53;;;;;;;3.03;1.73;;;22.20;40.50;;;;;;6177480;28;82850;-63
2021/05/27 02:18:54;;;;;;;2.53;1.88;;;22.20;40.90;;;;;;6196250;28;81574;-64
2021/05/27 02:21:55;;;;;;;2.33;1.45;;;22.20;40.70;;;;;;6156384;28;83595;-63
2021/05/27 02:25:22;;;;;;;2.38;1.83;;;22.20;40.50;;;;;;6166827;28;84948;-63
2021/05/27 02:28:24;;;;;;;3.03;1.73;;;22.20;40.50;;;;;;6155014;28;83543;-63
2021/05/27 02:31:25;;;;;;;1.92;1.67;;;22.20;40.50;;;;;;6152891;28;80615;-64
2021/05/27 02:34:27;;;;;;;2.08;1.40;;;22.20;41.20;;;;;;6156742;28;80451;-63
2021/05/27 02:37:31;;;;;;;2.70;1.40;;;22.10;40.90;;;;;;6159367;28;81721;-63
2021/05/27 02:40:32;;;;;;;3.65;1.40;;;22.20;41.20;;;;;;6178754;28;81024;-62
2021/05/27 02:43:36;;;;;;;3.15;1.48;;;22.20;40.90;;;;;;6178654;28;82259;-63
2021/05/27 02:46:41;;;;;;;2.22;1.63;;;22.20;41.00;;;;;;6172010;28;80392;-62
2021/05/27 02:49:43;;;;;;;2.05;1.60;;;22.20;41.20;;;;;;6171510;28;80693;-62
2021/05/27 02:52:43;;;;;;;1.77;1.25;;;22.10;40.90;;;;;;6158653;28;81149;-62
2021/05/27 02:55:44;;;;;;;2.80;1.35;;;22.20;40.90;;;;;;6179035;28;83027;-62
2021/05/27 02:58:47;;;;;;;2.45;1.58;;;22.20;41.10;;;;;;6168001;28;81454;-62
2021/05/27 03:01:49;;;;;;;2.53;1.63;;;22.10;41.00;;;;;;6181520;28;81493;-62
2021/05/27 03:04:51;;;;;;;3.13;1.88;;;22.10;41.20;;;;;;6177423;28;80661;-62
2021/05/27 03:07:52;;;;;;;1.83;1.40;;;22.20;41.00;;;;;;6179627;28;82843;-62
2021/05/27 03:10:54;;;;;;;2.50;1.58;;;22.20;41.20;;;;;;6193426;28;82234;-62
2021/05/27 03:13:56;;;;;;;1.88;1.50;;;22.10;40.60;;;;;;6181809;28;81311;-63
2021/05/27 03:16:59;;;;;;;5.90;1.50;;;22.20;41.10;;;;;;6182596;28;82432;-63
2021/05/27 03:20:00;;;;;;;1.33;1.23;;;22.20;41.40;;;;;;6160170;28;82811;-63
2021/05/27 03:23:01;;;;;;;2.50;1.52;;;22.20;41.40;;;;;;6165344;28;83367;-64
2021/05/27 03:26:02;;;;;;;2.53;1.40;;;22.20;41.60;;;;;;6198417;28;83214;-65
2021/05/27 03:29:05;;;;;;;4.22;1.58;;;22.10;41.20;;;;;;6169505;28;81415;-64
2021/05/27 03:32:06;;;;;;;3.22;1.58;;;22.20;41.80;;;;;;6174470;28;83338;-63
2021/05/27 03:35:06;;;;;;;2.72;1.40;;;22.20;41.50;;;;;;6162248;28;80317;-64
2021/05/27 03:38:07;;;;;;;1.67;1.40;;;22.20;41.50;;;;;;6175400;28;80506;-64
2021/05/27 03:41:09;;;;;;;1.42;1.27;;;22.20;41.60;;;;;;6158120;28;80751;-63
2021/05/27 03:44:10;;;;;;;2.33;1.40;;;22.20;41.40;;;;;;6157132;28;83135;-64
2021/05/27 03:47:11;;;;;;;2.67;1.40;;;22.20;41.40;;;;;;6164684;28;80314;-60
2021/05/27 03:50:12;;;;;;;2.60;1.73;;;22.20;41.30;;;;;;6181882;28;80358;-63
2021/05/27 03:53:12;;;;;;;1.58;1.38;;;22.20;42.00;;;;;;6179177;28;83290;-62
2021/05/27 03:56:16;;;;;;;3.05;1.75;;;22.10;41.40;;;;;;6179858;28;82416;-64
2021/05/27 04:02:47;;;;;;;1.88;1.20;;;22.20;41.70;;;;;;6189991;28;82841;-64
2021/05/27 04:09:21;;;;;;;4.43;2.10;;;22.20;42.00;;;;;;6174070;28;81439;-64
2021/05/27 04:15:41;;;;;;;2.25;1.38;;;22.20;42.00;;;;;;6179785;28;82530;-63
2021/05/27 04:18:42;;;;;;;3.28;1.38;;;22.20;42.00;;;;;;6197203;28;80753;-63
2021/05/27 04:21:42;;;;;;;8.38;1.85;;;22.20;43.30;;;;;;6181565;28;80463;-63
2021/05/27 04:24:43;;;;;;;5.00;1.38;;;22.20;43.40;;;;;;6182063;28;80317;-64
2021/05/27 04:27:43;;;;;;;3.90;1.52;;;22.20;43.20;;;;;;6158288;28;80309;-62
2021/05/27 04:34:03;;;;;;;7.07;1.70;;;22.20;43.00;;;;;;6175426;28;81495;-62
2021/05/27 04:37:04;;;;;;;2.40;1.55;;;22.20;43.30;;;;;;6174881;28;81576;-62
2021/05/27 04:40:04;;;;;;;2.60;1.77;;;22.20;43.60;;;;;;6157556;28;80301;-62
2021/05/27 04:43:05;;;;;;;3.65;1.40;;;22.10;43.60;;;;;;6180299;28;80344;-63
2021/05/27 04:46:05;;;;;;;2.17;1.40;;;22.20;43.60;;;;;;6180042;28;81798;-63
2021/05/27 04:49:06;;;;;;;3.17;1.73;;;22.20;43.60;;;;;;6181060;28;82798;-63
2021/05/27 04:52:06;;;;;;;3.97;1.80;;;22.20;43.00;;;;;;6139150;28;1177194;-62
2021/05/27 04:55:07;;;;;;;4.13;1.65;;;22.30;43.20;;;;;;6157979;28;81480;-62
2021/05/27 04:58:07;;;;;;;4.70;1.70;;;22.30;42.40;;;;;;6182493;28;80487;-62
2021/05/27 05:01:08;;;;;;;5.35;1.60;;;22.30;42.20;;;;;;6181458;28;80604;-62
2021/05/27 05:04:08;;;;;;;3.22;1.60;;;22.30;42.80;;;;;;6158214;28;80734;-62
2021/05/27 05:07:09;;;;;;;3.25;1.58;;;22.20;41.70;;;;;;6181843;28;80135;-62
2021/05/27 05:10:10;;;;;;;4.57;1.63;;;22.10;41.30;;;;;;6153052;28;80323;-61
2021/05/27 05:13:11;;;;;;;6.07;1.77;;;22.10;41.20;;;;;;6181210;28;84986;-62
2021/05/27 05:16:11;;;;;;;6.78;2.30;;;22.00;40.90;;;;;;6181062;28;86176;-63
2021/05/27 05:19:12;;;;;;;13.85;2.25;;;22.00;40.90;;;;;;6177716;28;81151;-62
2021/05/27 05:22:12;;;;;;;4.18;2.00;;;21.90;40.70;;;;;;6193520;28;80397;-63
2021/05/27 05:25:13;;;;;;;7.45;2.10;;;22.00;40.40;;;;;;6157789;28;83355;-63
2021/05/27 05:28:14;;;;;;;9.23;2.22;;;22.00;40.90;;;;;;6159774;28;80365;-63
2021/05/27 05:31:14;;;;;;;3.95;2.00;;;22.00;41.10;;;;;;6178848;28;81941;-63
2021/05/27 05:34:15;;;;;;;3.78;1.70;;;22.00;42.10;;;;;;6180262;28;81604;-62
2021/05/27 05:37:15;;;;;;;3.63;1.67;;;22.00;40.90;;;;;;6182038;28;81246;-63
2021/05/27 05:40:16;;;;;;;6.88;1.88;;;21.90;41.10;;;;;;6181514;28;80810;-63
2021/05/27 05:43:16;;;;;;;19.65;2.00;;;22.00;40.90;;;;;;6179986;28;81343;-63
2021/05/27 05:46:17;;;;;;;5.45;1.83;;;22.00;41.10;;;;;;6155143;28;81288;-63
2021/05/27 05:49:17;;;;;;;8.52;2.15;;;22.00;40.90;;;;;;6156770;28;80442;-63
2021/05/27 05:52:18;;;;;;;6.57;3.17;;;22.00;41.30;;;;;;6156963;28;80597;-64
2021/05/27 05:55:18;;;;;;;3.90;2.15;;;22.00;41.10;;;;;;6156466;28;80480;-64
2021/05/27 05:58:19;;;;;;;6.75;2.60;;;22.00;40.50;;;;;;6177894;28;80400;-63
2021/05/27 06:01:19;;;;;;;5.97;2.30;;;22.00;41.00;;;;;;6174374;28;80363;-63
2021/05/27 06:04:20;;;;;;;5.57;1.85;;;22.00;40.80;;;;;;6148000;28;82949;-63
2021/05/27 06:07:28;;;;;;;3.92;1.90;;;22.00;40.40;;;;;;6190516;28;80551;-64
2021/05/27 06:10:29;;;;;;;5.45;1.70;;;22.00;40.70;;;;;;6178475;28;80575;-63
2021/05/27 06:13:29;;;;;;;2.72;1.45;;;22.00;40.90;;;;;;6181327;28;82327;-64
2021/05/27 06:16:30;;;;;;;4.38;1.50;;;22.00;40.70;;;;;;6176806;28;81582;-63
2021/05/27 06:19:30;;;;;;;4.35;1.95;;;22.00;40.40;;;;;;6156377;28;80501;-63
2021/05/27 06:22:38;;;;;;;4.07;1.65;;;22.00;40.60;;;;;;6154762;28;82723;-63
2021/05/27 06:25:43;;;;;;;3.33;1.60;;;22.00;40.40;;;;;;6156430;28;83543;-63
2021/05/27 06:28:43;;;;;;;2.67;1.60;;;22.00;40.40;;;;;;6180696;28;80994;-63
2021/05/27 06:31:45;;;;;;;3.92;2.08;;;22.00;40.30;;;;;;6178719;28;82256;-64
2021/05/27 06:34:48;;;;;;;5.90;2.70;;;21.90;40.30;;;;;;6166523;28;81326;-62
2021/05/27 06:37:49;;;;;;;6.65;2.38;;;22.00;40.20;;;;;;6156568;28;81052;-63
2021/05/27 06:40:49;;;;;;;4.75;1.90;;;22.00;40.40;;;;;;6158697;28;80779;-63
2021/05/27 06:43:50;;;;;;;3.70;2.25;;;22.00;41.20;;;;;;6180213;28;80589;-64
2021/05/27 06:46:50;;;;;;;6.15;2.10;;;22.00;40.80;;;;;;6172604;28;82406;-64
2021/05/27 06:49:51;;;;;;;2.00;1.70;;;22.00;40.90;;;;;;6151526;28;83333;-64
2021/05/27 06:52:51;;;;;;;3.55;1.90;;;22.10;40.80;;;;;;6156802;28;80032;-65
2021/05/27 06:55:52;;;;;;;3.83;1.98;;;22.10;41.00;;;;;;6152313;28;80276;-64
2021/05/27 06:58:54;;;;;;;4.43;1.80;;;22.10;41.40;;;;;;6153987;28;81092;-64
2021/05/27 07:01:54;;;;;;;4.30;2.38;;;22.10;40.60;;;;;;6172002;28;80409;-64
2021/05/27 07:04:55;;;;;;;4.38;1.63;;;22.10;41.50;;;;;;6177336;27;81106;-64
2021/05/27 07:07:55;;;;;;;5.35;1.65;;;22.20;41.50;;;;;;6177975;28;80770;-64
2021/05/27 07:10:56;;;;;;;5.32;2.05;;;22.20;41.70;;;;;;6165963;28;80553;-66
2021/05/27 07:13:56;;;;;;;3.63;2.00;;;22.20;41.70;;;;;;6154101;28;80317;-67
2021/05/27 07:16:57;;;;;;;2.67;1.70;;;22.20;41.60;;;;;;6164491;28;83055;-67
2021/05/27 07:19:58;;;;;;;5.10;2.22;;;22.20;41.70;;;;;;6159743;28;80368;-66
2021/05/27 07:22:58;;;;;;;4.65;1.60;;;22.20;42.10;;;;;;6172587;28;80463;-66
2021/05/27 07:26:03;;;;;;;4.75;1.75;;;22.20;41.60;;;;;;6148493;28;81238;-63
2021/05/27 07:29:03;;;;;;;5.00;1.73;;;22.30;42.00;;;;;;6154529;28;81480;-65
2021/05/27 07:32:04;;;;;;;4.63;2.00;;;22.30;41.80;;;;;;6157175;28;80787;-64
2021/05/27 07:35:04;;;;;;;3.38;2.00;;;22.30;41.50;;;;;;6169361;28;80432;-65
2021/05/27 07:38:05;;;;;;;2.80;2.05;;;22.30;41.30;;;;;;6149248;28;81051;-65
2021/05/27 07:41:09;;;;;;;2.58;1.88;;;22.30;40.80;;;;;;6151823;28;80329;-64
2021/05/27 07:44:09;;;;;;;4.18;2.00;;;22.30;40.90;;;;;;6162667;28;83525;-63
2021/05/27 07:47:10;;;;;;;2.42;1.60;;;22.30;40.60;;;;;;6187683;28;81644;-64
2021/05/27 07:50:10;;;;;;;3.65;1.70;;;22.30;40.40;;;;;;6177127;28;80312;-63
2021/05/27 07:53:16;;;;;;;3.15;1.60;;;22.30;40.60;;;;;;6170645;28;86385;-63
2021/05/27 07:56:16;;;;;;;1.80;1.23;;;22.30;40.40;;;;;;6154363;28;83216;-63
2021/05/27 07:59:17;;;;;;;2.50;1.70;;;22.30;40.20;;;;;;6161599;28;80488;-63
2021/05/27 08:02:17;;;;;;;2.03;1.45;;;22.30;40.00;;;;;;6179194;28;81425;-64
2021/05/27 08:05:20;;;;;;;2.90;1.58;;;22.30;40.00;;;;;;6165929;28;81580;-64
2021/05/27 08:08:20;;;;;;;2.17;1.42;;;22.30;40.00;;;;;;6153534;28;83349;-64
2021/05/27 08:11:21;;;;;;;2.28;1.30;;;22.30;40.10;;;;;;6157259;28;80365;-64
2021/05/27 08:14:21;;;;;;;3.47;1.40;;;22.30;40.10;;;;;;6151675;28;81624;-64
2021/05/27 08:17:22;;;;;;;5.07;1.20;;;22.30;40.30;;;;;;6165508;28;80442;-64
2021/05/27 08:20:22;;;;;;;3.28;1.60;;;22.40;40.60;;;;;;6171313;28;80881;-64
2021/05/27 08:23:23;;;;;;;4.80;1.50;;;22.40;40.30;;;;;;6151871;28;81147;-64
2021/05/27 08:26:23;;;;;;;4.43;1.30;;;22.40;40.50;;;;;;6164912;28;81222;-64
2021/05/27 08:29:24;;;;;;;2.88;1.20;;;22.40;40.80;;;;;;6177464;28;81993;-63
2021/05/27 08:32:24;;;;;;;3.33;1.40;;;22.40;40.20;;;;;;6181244;28;82966;-64
2021/05/27 08:35:25;;;;;;;2.60;1.50;;;22.40;40.70;;;;;;6180497;28;81342;-63
2021/05/27 08:38:25;;;;;;;1.95;1.20;;;22.40;40.50;;;;;;6180134;28;80438;-63
2021/05/27 08:41:26;;;;;;;2.65;1.70;;;22.40;40.40;;;;;;6168908;28;81558;-64
2021/05/27 08:44:26;;;;;;;1.83;1.20;;;22.40;40.60;;;;;;6155902;28;81630;-63
2021/05/27 08:47:28;;;;;;;1.15;1.05;;;22.40;40.50;;;;;;6166490;28;80987;-63
2021/05/27 08:50:35;;;;;;;3.33;1.10;;;22.50;40.70;;;;;;6174972;28;81267;-63
2021/05/27 08:53:36;;;;;;;3.20;1.45;;;22.50;40.60;;;;;;6179553;28;80588;-64
2021/05/27 08:56:36;;;;;;;2.50;1.45;;;22.50;40.80;;;;;;6164999;28;80342;-64
2021/05/27 08:59:37;;;;;;;2.30;1.45;;;22.50;40.80;;;;;;6153977;28;80447;-65
2021/05/27 09:02:37;;;;;;;3.20;1.30;;;22.50;40.90;;;;;;6154316;27;80629;-65
2021/05/27 09:05:38;;;;;;;2.55;1.35;;;22.50;40.60;;;;;;6157818;28;81623;-65
2021/05/27 09:08:39;;;;;;;2.83;1.13;;;22.50;41.60;;;;;;6165788;28;81451;-65
2021/05/27 09:11:40;;;;;;;1.30;1.15;;;22.50;41.10;;;;;;6165473;28;82359;-66
2021/05/27 09:14:40;;;;;;;1.92;1.23;;;22.50;41.50;;;;;;6170058;28;81479;-65
2021/05/27 09:17:41;;;;;;;2.40;1.20;;;22.50;41.00;;;;;;6177416;28;81023;-65
2021/05/27 09:20:41;;;;;;;3.75;1.20;;;22.50;41.00;;;;;;6163002;28;81104;-65
2021/05/27 09:23:42;;;;;;;1.67;1.35;;;22.50;40.70;;;;;;6161950;28;80381;-65
2021/05/27 09:26:42;;;;;;;1.65;1.10;;;22.50;41.30;;;;;;6168173;28;80359;-66
2021/05/27 09:29:43;;;;;;;1.27;0.95;;;22.60;41.00;;;;;;6166363;28;81031;-66
2021/05/27 09:32:43;;;;;;;1.75;0.90;;;22.60;40.90;;;;;;6179229;28;80953;-66
2021/05/27 09:35:44;;;;;;;1.55;1.30;;;22.60;40.90;;;;;;6173287;28;80568;-65
2021/05/27 09:38:45;;;;;;;2.72;1.20;;;22.60;41.90;;;;;;6164968;27;80587;-65
2021/05/27 09:41:45;;;;;;;2.20;1.60;;;22.60;41.30;;;;;;6164821;28;82737;-65
2021/05/27 09:44:46;;;;;;;1.85;1.10;;;22.60;41.70;;;;;;6165139;28;81615;-65
2021/05/27 09:47:46;;;;;;;3.13;1.13;;;22.60;42.50;;;;;;6153129;28;82008;-64
2021/05/27 09:50:48;;;;;;;4.68;1.30;;;22.60;43.20;;;;;;6164755;28;82438;-64
2021/05/27 09:53:48;;;;;;;3.60;1.35;;;22.60;44.40;;;;;;6177441;28;80424;-65
2021/05/27 09:56:49;;;;;;;2.25;1.27;;;22.60;44.60;;;;;;6176598;28;80797;-60
2021/05/27 09:59:50;;;;;;;1.83;1.10;;;22.60;43.70;;;;;;6175480;28;80770;-60
2021/05/27 10:02:50;;;;;;;2.15;1.15;;;22.60;43.60;;;;;;6161406;27;82997;-66
2021/05/27 10:05:51;;;;;;;1.95;1.20;;;22.60;43.60;;;;;;6166736;28;80397;-65
2021/05/27 10:08:51;;;;;;;2.58;1.25;;;22.60;43.20;;;;;;6162672;28;80457;-66
2021/05/27 10:11:52;;;;;;;2.20;1.50;;;22.60;43.10;;;;;;6163373;28;81719;-65
2021/05/27 10:14:52;;;;;;;3.30;1.30;;;22.60;42.80;;;;;;6165004;28;80764;-65
2021/05/27 10:17:56;;;;;;;3.90;1.50;;;22.60;42.90;;;;;;6163404;28;81140;-64
2021/05/27 10:20:57;;;;;;;2.08;1.40;;;22.60;42.00;;;;;;6178864;28;80315;-65
2021/05/27 10:23:58;;;;;;;2.15;1.15;;;22.60;42.30;;;;;;6175035;28;80214;-68
2021/05/27 10:26:58;;;;;;;6.68;1.50;;;22.60;42.10;;;;;;6161554;28;81305;-65
2021/05/27 10:29:59;;;;;;;4.20;1.58;;;22.70;42.30;;;;;;6149540;28;81597;-65
2021/05/27 10:33:01;;;;;;;2.30;1.23;;;22.70;42.20;;;;;;6164633;28;80411;-66
2021/05/27 10:36:01;;;;;;;1.27;1.13;;;22.70;42.10;;;;;;6162356;28;80373;-65
2021/05/27 10:39:02;;;;;;;4.30;1.30;;;22.70;42.10;;;;;;6156816;27;80969;-65
2021/05/27 10:42:03;;;;;;;4.50;1.40;;;22.70;43.30;;;;;;6152578;28;80526;-65
2021/05/27 10:45:03;;;;;;;1.73;1.10;;;22.70;42.00;;;;;;6165376;28;83284;-64
2021/05/27 10:48:04;;;;;;;2.38;1.38;;;22.70;42.10;;;;;;6164244;28;80116;-65
2021/05/27 10:51:21;;;;;;;3.90;1.58;;;22.70;42.50;;;;;;6157101;27;80244;-65
2021/05/27 10:54:22;;;;;;;2.08;1.48;;;22.70;42.20;;;;;;6150945;28;81207;-63
2021/05/27 10:57:22;;;;;;;4.38;1.60;;;22.80;42.30;;;;;;6151056;27;80605;-65
2021/05/27 11:00:23;;;;;;;2.20;1.60;;;22.70;43.20;;;;;;6166240;28;80409;-65
2021/05/27 11:03:24;;;;;;;3.50;1.75;;;22.80;42.70;;;;;;6180107;28;80907;-64
2021/05/27 11:06:24;;;;;;;4.00;1.50;;;22.80;44.30;;;;;;6161101;28;80298;-64
2021/05/27 11:09:25;;;;;;;3.08;1.40;;;22.80;48.20;;;;;;6169003;28;81763;-64
2021/05/27 11:12:26;;;;;;;1.95;1.50;;;22.80;44.90;;;;;;6158965;28;80652;-64
2021/05/27 11:15:26;;;;;;;4.15;1.55;;;22.80;47.10;;;;;;6169570;28;81639;-64
2021/05/27 11:18:26;;;;;;;2.85;1.50;;;22.80;45.30;;;;;;6160766;28;80770;-65
2021/05/27 11:21:27;;;;;;;2.50;1.38;;;22.90;45.40;;;;;;6155118;28;80844;-66
2021/05/27 11:24:37;;;;;;;8.98;1.80;;;22.90;45.20;;;;;;6160566;28;80892;-66
2021/05/27 11:27:38;;;;;;;3.40;1.65;;;22.90;45.10;;;;;;6172154;28;81057;-66
2021/05/27 11:30:41;;;;;;;2.13;1.25;;;22.90;44.90;;;;;;6181356;28;80473;-66
2021/05/27 11:33:42;;;;;;;2.90;1.42;;;22.90;44.70;;;;;;6164732;28;80398;-66
2021/05/27 11:36:42;;;;;;;3.22;1.48;;;22.90;44.60;;;;;;6161488;27;80404;-65
2021/05/27 11:39:43;;;;;;;4.55;1.33;;;22.90;44.60;;;;;;6152209;28;81362;-66
2021/05/27 11:42:43;;;;;;;2.20;1.45;;;22.90;44.30;;;;;;6155582;28;82036;-65
2021/05/27 11:45:44;;;;;;;2.58;1.65;;;22.90;44.10;;;;;;6156907;28;80540;-66
2021/05/27 11:48:56;;;;;;;4.78;1.73;;;22.90;44.10;;;;;;6157303;28;80278;-65
2021/05/27 11:51:56;;;;;;;4.43;1.42;;;22.90;44.00;;;;;;6181032;28;80337;-64
2021/05/27 11:54:57;;;;;;;2.08;1.25;;;22.90;44.00;;;;;;6182076;28;80650;-64
2021/05/27 11:57:57;;;;;;;2.70;1.35;;;22.90;43.80;;;;;;6177849;28;80990;-65
2021/05/27 12:00:58;;;;;;;4.15;1.35;;;22.90;43.60;;;;;;6180263;28;80965;-65
2021/05/27 12:03:58;;;;;;;4.10;1.48;;;22.90;43.50;;;;;;6152514;28;80393;-65
2021/05/27 12:06:59;;;;;;;2.85;1.30;;;22.90;43.60;;;;;;6172245;28;80970;-63
2021/05/27 12:10:00;;;;;;;1.95;1.30;;;22.90;43.20;;;;;;6176070;27;80197;-63
2021/05/27 12:13:00;;;;;;;2.55;1.50;;;22.90;43.10;;;;;;6177530;28;83400;-63
2021/05/27 12:16:01;;;;;;;3.30;1.60;;;22.90;42.40;;;;;;6173986;28;80420;-67
2021/05/27 12:19:01;;;;;;;2.28;1.52;;;22.90;42.70;;;;;;6175034;28;80355;-64
2021/05/27 12:22:02;;;;;;;5.40;1.98;;;22.90;42.20;;;;;;6162957;28;80273;-65
2021/05/27 12:25:02;;;;;;;4.45;1.77;;;22.90;42.50;;;;;;6159693;28;80506;-64
2021/05/27 12:28:03;;;;;;;2.70;1.90;;;22.90;41.90;;;;;;6155570;28;81272;-64
2021/05/27 12:31:03;;;;;;;4.28;1.90;;;22.90;42.10;;;;;;6181714;28;80144;-64
2021/05/27 12:34:06;;;;;;;2.80;1.67;;;22.90;42.00;;;;;;6159401;28;80458;-64
2021/05/27 12:37:07;;;;;;;1.75;1.50;;;22.90;41.90;;;;;;6181903;28;80228;-64
2021/05/27 12:40:07;;;;;;;2.20;1.63;;;22.90;41.70;;;;;;6181044;28;83092;-64
2021/05/27 12:43:08;;;;;;;5.63;1.73;;;22.90;41.30;;;;;;6159097;28;80964;-63
2021/05/27 12:46:09;;;;;;;3.38;1.70;;;22.90;41.20;;;;;;6181225;28;81642;-64
2021/05/27 12:49:09;;;;;;;2.97;1.60;;;22.90;41.20;;;;;;6179068;28;82130;-63
2021/05/27 12:52:10;;;;;;;2.22;1.50;;;22.90;41.40;;;;;;6181901;28;80895;-64
2021/05/27 12:55:11;;;;;;;4.13;1.70;;;22.80;41.00;;;;;;6157202;28;83681;-64
2021/05/27 12:58:12;;;;;;;3.92;1.65;;;22.80;41.00;;;;;;6153649;28;80898;-67
2021/05/27 13:01:12;;;;;;;12.10;1.77;;;22.80;41.10;;;;;;6178831;28;80475;-65
2021/05/27 13:04:13;;;;;;;11.68;1.65;;;22.80;41.20;;;;;;6172940;28;80428;-64
2021/05/27 13:07:13;;;;;;;4.85;1.50;;;22.80;41.10;;;;;;6154077;28;80833;-64
2021/05/27 13:10:14;;;;;;;14.77;2.55;;;22.80;42.00;;;;;;6178767;28;81548;-64
2021/05/27 13:13:14;;;;;;;2.25;1.30;;;22.80;41.40;;;;;;6156766;28;83380;-65
2021/05/27 13:16:15;;;;;;;6.68;1.45;;;22.80;41.10;;;;;;6181559;28;80551;-65
2021/05/27 13:19:15;;;;;;;3.05;1.50;;;22.80;41.10;;;;;;6155476;28;80672;-65
2021/05/27 13:22:16;;;;;;;3.88;1.63;;;22.80;41.20;;;;;;6153797;28;80721;-64
2021/05/27 13:25:16;;;;;;;3.20;1.38;;;22.80;42.00;;;;;;6173174;28;81405;-63
2021/05/27 13:28:17;;;;;;;2.97;1.55;;;22.80;41.00;;;;;;6146864;28;80194;-64
2021/05/27 13:31:17;;;;;;;1.63;1.10;;;22.80;41.00;;;;;;6177031;28;80791;-65
2021/05/27 13:34:18;;;;;;;2.47;1.30;;;22.80;41.10;;;;;;6172042;28;80544;-66
2021/05/27 13:37:18;;;;;;;5.53;1.58;;;22.80;41.10;;;;;;6151537;28;80549;-65
2021/05/27 13:40:19;;;;;;;4.65;1.40;;;22.90;41.10;;;;;;6151403;27;80757;-65
2021/05/27 13:43:20;;;;;;;14.75;5.15;;;22.80;41.10;;;;;;6178912;28;80734;-65
2021/05/27 13:46:20;;;;;;;74.72;25.00;;;22.80;41.20;;;;;;6175974;28;81824;-66
2021/05/27 13:49:21;;;;;;;198.80;66.28;;;22.80;41.10;;;;;;6163155;28;84491;-65
2021/05/27 13:52:21;;;;;;;389.17;127.65;;;22.80;41.40;;;;;;6159312;28;83059;-67
2021/05/27 13:55:24;;;;;;;362.77;122.25;;;22.90;41.80;;;;;;6174275;28;86037;-66
2021/05/27 13:58:25;;;;;;;337.67;109.45;;;22.90;41.50;;;;;;6172943;28;85969;-66
2021/05/27 14:01:25;;;;;;;306.30;98.38;;;22.90;41.60;;;;;;6152620;28;88806;-65
2021/05/27 14:04:28;;;;;;;272.40;91.95;;;22.90;41.60;;;;;;6176141;28;87174;-66
2021/05/27 14:07:28;;;;;;;237.68;82.63;;;22.90;41.70;;;;;;6189620;28;85167;-66
2021/05/27 14:10:29;;;;;;;201.32;70.97;;;22.90;41.60;;;;;;6175624;28;83552;-65
2021/05/27 14:13:29;;;;;;;205.50;67.10;;;22.90;41.50;;;;;;6153428;28;82914;-66
2021/05/27 14:16:30;;;;;;;178.63;60.05;;;22.90;41.50;;;;;;6152493;28;84294;-66
2021/05/27 14:19:30;;;;;;;157.13;53.05;;;22.90;41.50;;;;;;6155492;28;83156;-67
2021/05/27 14:22:31;;;;;;;153.93;51.95;;;22.90;41.70;;;;;;6155977;28;83277;-64
2021/05/27 14:25:31;;;;;;;134.68;47.20;;;22.90;41.80;;;;;;6175559;28;83070;-64
2021/05/27 14:28:32;;;;;;;117.93;42.88;;;22.90;41.90;;;;;;6193059;28;83344;-64
2021/05/27 14:31:32;;;;;;;112.88;39.00;;;22.90;42.20;;;;;;6173134;28;84348;-63
2021/05/27 14:34:33;;;;;;;109.28;37.00;;;22.80;42.70;;;;;;6154415;28;83309;-64
2021/05/27 14:37:34;;;;;;;108.13;35.90;;;22.80;42.20;;;;;;6157501;28;83497;-64
2021/05/27 14:40:35;;;;;;;96.60;32.85;;;22.90;42.10;;;;;;6174202;28;84084;-64
2021/05/27 14:43:36;;;;;;;80.95;28.02;;;22.90;42.20;;;;;;6153057;28;82930;-64
2021/05/27 14:46:36;;;;;;;81.15;30.08;;;22.80;42.40;;;;;;6156420;28;84215;-65
2021/05/27 14:49:37;;;;;;;75.07;27.20;;;22.80;42.30;;;;;;6173669;28;83007;-63
2021/05/27 14:52:37;;;;;;;67.97;24.48;;;22.80;42.50;;;;;;6151955;28;83652;-62
2021/05/27 14:55:38;;;;;;;71.63;24.25;;;22.90;42.30;;;;;;6157965;28;83184;-64
2021/05/27 14:58:38;;;;;;;63.97;23.27;;;22.90;42.10;;;;;;6153774;28;83158;-64
2021/05/27 15:01:39;;;;;;;60.90;21.38;;;23.00;42.70;;;;;;6153724;28;83336;-64
2021/05/27 15:04:39;;;;;;;55.40;18.85;;;22.90;42.00;;;;;;6156300;28;83142;-63
2021/05/27 15:07:40;;;;;;;50.00;17.77;;;22.90;41.90;;;;;;6157473;28;83157;-64
2021/05/27 15:10:40;;;;;;;49.63;16.65;;;22.90;42.00;;;;;;6156891;28;91926;-63
2021/05/27 15:13:41;;;;;;;39.70;15.35;;;22.90;42.00;;;;;;6157968;28;82965;-63
2021/05/27 15:16:41;;;;;;;40.28;13.43;;;22.90;42.20;;;;;;6146197;28;83012;-64
2021/05/27 15:19:42;;;;;;;34.70;12.15;;;22.90;42.20;;;;;;6160591;28;83275;-63
2021/05/27 15:22:42;;;;;;;26.88;9.77;;;22.90;42.10;;;;;;6180278;28;83070;-63
2021/05/27 15:25:43;;;;;;;22.90;8.60;;;22.90;42.00;;;;;;6183984;28;82990;-64
2021/05/27 15:28:43;;;;;;;22.45;9.27;;;22.90;41.70;;;;;;6184352;28;81525;-63
2021/05/27 15:31:44;;;;;;;20.15;8.15;;;22.90;41.70;;;;;;6174431;28;81554;-64
2021/05/27 15:34:44;;;;;;;21.92;8.02;;;22.90;41.70;;;;;;6157436;28;81440;-64
2021/05/27 15:37:45;;;;;;;19.63;7.00;;;22.90;42.40;;;;;;6161552;28;81683;-64
2021/05/27 15:40:47;;;;;;;14.82;6.25;;;22.90;41.40;;;;;;6179291;28;80525;-63
2021/05/27 15:43:49;;;;;;;12.05;5.68;;;22.90;42.00;;;;;;6154142;28;80429;-65
2021/05/27 15:46:50;;;;;;;15.13;5.75;;;22.90;41.30;;;;;;6180577;28;81770;-65
2021/05/27 15:49:51;;;;;;;12.20;5.03;;;22.90;41.70;;;;;;6184167;28;80548;-66
2021/05/27 15:52:51;;;;;;;18.60;4.97;;;22.90;41.10;;;;;;6174264;28;81149;-66
2021/05/27 15:55:52;;;;;;;10.50;4.78;;;22.90;41.60;;;;;;6159183;28;80481;-65